18ème Rallye National Terre de Langres
Championnat de France des Rallyes sur Terre
1 4 MAURIN Julien/URAL Olivier Citroën DS3 WRC A 8W 6:18,6 76km/h 1
2 5 TRON Noel/OBRECHT Justine Citroën DS3 WRC A 8W 6:29,3 +00:10,7 +00:10,7 1
3 9 AMOURETTE Marc/MARIE Gwenola Citroën DS3 R5 R 5 6:37,3 +00:18,7 +00:08,0
4 15 FALCO Jean-Marc/BOUERI Jonathan Mitsubishi Lancer Evo9 R 4 6:42,8 +00:24,2 +00:05,5 1
5 2 DURBEC Thibault/RENUCCI Jacques-Julien Citroën DS3 WRC A 8W 6:43,3 +00:24,7 +00:00,5 1
6 7 FERAUD Cyrille/DUCHEMIN Aymeric Citroën C4 WRC FA 8W 6:46,5 +00:27,9 +00:03,2 1
7 1 BERFA Jordan/AUGUSTIN Damien HUYNDAI i20 R5 R 5 6:53,5 +00:34,9 +00:07,0 1
8 3 CUOQ Jean-Marie/GRANDEMANGE Marielle Citroën C4 WRC FA 8W 6:55,7 +00:37,1 +00:02,2 1
9 8 MORDACQ Arnaud/RATIER Marie-Noelle Mitsubishi Lancer Evo9 FN 4 7:00,2 +00:41,6 +00:04,5 1
10 6 BAUD Lionel/SERRE Pascal Ford Focus WRC FA 8W 7:03,5 +00:44,9 +00:03,3 1
11 14 CECCHI Philippe/LETOURNEAU Lara Citroën DS3 R5 R 5 7:08,0 +00:49,4 +00:04,5
12 54 MARGAILLAN Hugo/POUJOL Sébastien Ford Fiesta R2J R 2 7:09,2 +00:50,6 +00:01,2 4
13 39 MASCLAUX Arnaud/MOULIN Alexandre Renault Clio Ragnotti F2 14 7:12,4 +00:53,8 +00:03,2 1 2
14 66 CACHOD Sylvain/POURCELOT Aurélien Citroën C2 R2 R 2 7:17,2 +00:58,6 +00:04,8
15 62 CHALAL Theo/LE FLOCH Franck Ford Fiesta R2J R 2 7:17,7 +00:59,1 +00:00,5 4
16 23 BENIER Thomas/PRASSE Cédric Subaru Impreza WRX N 4 7:21,6 +01:03,0 +00:03,9 1
17 63 MOLLARD Alexandre/EYMIN Nicolas Peugeot 208 VTI R 2 7:21,9 +01:03,3 +00:00,3
18 31 COLNEY Thierry/FORTMANN Patrick Citroën DS3 R3 R 3 7:22,6 +01:04,0 +00:00,7 1 2
19 16 PELUTTIERO Thibaud/REICHENECKER Josh Mitsubishi Lancer EvoX R 4 7:22,9 +01:04,3 +00:00,3 1
20 61 CORNU Alexandre/FASSOLA Thibault Ford Fiesta R2J R 2 7:22,9 +01:04,3 4
21 20 GAIDOZ Hervé/RICHARD François Subaru Impreza WRX FA 8 7:22,9 +01:04,3 1
22 19 CHAYNES Gary/TRIBOUT Christian Mitsubishi Lancer Evo6 FA 8 7:23,2 +01:04,6 +00:00,3 1
23 48 JOUINES Jean/CHABBERT Martin Ford Fiesta R2J R 2 7:23,6 +01:05,0 +00:00,4 4
24 44 BOULENC Benjamin/DOS REIS Sébastien Ford Fiesta R2J R 2 7:23,9 +01:05,3 +00:00,3 4
25 43 DI FANTE Romain/TEMPIER Romain Ford Fiesta R2J R 2 7:25,6 +01:07,0 +00:01,7 4
26 57 CARTIER Victor/CRAEN Fabien Ford Fiesta R2J R 2 7:27,8 +01:09,2 +00:02,2 4
27 38 JULIA David/AUBERTIN Ludovic Peugeot 206 Rc F2 14 7:28,1 +01:09,5 +00:00,3 1 2
28 52 GIUSTI Igor/DINI Gilbert Ford Fiesta R2J R 2 7:28,8 +01:10,2 +00:00,7 4
29 30 ASTIER Loïc/DECLERCK Loïc Citroën DS3 R3 R 3 7:28,9 +01:10,3 +00:00,1 1 2
30 78 RAYNAUD Gabriel/JULIEN William Seat Ibiza GTI F2 14 7:30,3 +01:11,7 +00:01,4 1 2
31 24 MARTI Christian/LAVIALE Jean-Marc Mitsubishi Lancer Evo9 FN 4 7:32,1 +01:13,5 +00:01,8 1
32 64 GUIBERT Jean-Christophe/GRACIAL Laurent Ford Fiesta R2 R 2 7:32,5 +01:13,9 +00:00,4
33 49 GOUPIL Jocerand/CIANFARANI Anthoni Ford Fiesta R2J R 2 7:33,2 +01:14,6 +00:00,7 4
34 45 FOURMAUX Adrien/FOURMAUX Maxime Ford Fiesta R2J R 2 7:33,5 +01:14,9 +00:00,3 4
35 42 FRANCESCHI Jean-Baptiste/COURBON Romain Ford Fiesta R2J R 2 7:33,7 +01:15,1 +00:00,2 4
36 41 SABATIER Florent/SANTIAGO Thomas Peugeot 106 S16 FA 6 7:35,6 +01:17,0 +00:01,9 1 2
37 25 MOREL Jean-Luc/GIDEL Philippe Subaru Impreza WRX FN 4 7:36,6 +01:18,0 +00:01,0
38 51 MOUSTIN Doriann/DESNOYER Alexia Ford Fiesta R2J R 2 7:36,6 +01:18,0 4
39 53 GANDELLI David/BIAGETTI Loan Ford Fiesta R2J R 2 7:38,4 +01:19,8 +00:01,8 4
40 71 COLOMBE Geoffroy/FABREGUE Régis Peugeot 206 XS FA 6K 7:39,1 +01:20,5 +00:00,7
41 68 PAILLER Julien/HENQUINET Sébastien Citroën Saxo T4 FA 6K 7:39,2 +01:20,6 +00:00,1
42 12 BESSON Jean-Pascal/ROISSAC Patrice Skoda Fabia R5 R 5 7:39,8 +01:21,2 +00:00,6 1
43 47 CHANTRIAUX Audric/PEREZ Laëtitia Ford Fiesta R2J R 2 7:39,9 +01:21,3 +00:00,1 4
44 37 GUINCHARD Emmanuel/CHATELAIN Mickaël Peugeot 207 Rc R 3 7:40,5 +01:21,9 +00:00,6
45 40 VITAL Jean-Pierre/YVERNAULT Eric Citroën Saxo VTS F2 13 7:41,7 +01:23,1 +00:01,2 1 2
46 88 BRISSON Eddy/MASSON Pascal Suzuki Swift Sport FN 2 7:43,2 +01:24,6 +00:01,5
47 85 GERMAIN Alex/POIROT Edgard Peugeot 205 GTI F2 13 7:43,8 +01:25,2 +00:00,6
48 75 LAGIER Fabrice/DUPONT Romuald Peugeot 306 S16 FA 7 7:44,8 +01:26,2 +00:01,0
49 28 VIALLE Lilian/GHIRARDELLO Manuel Renault Clio R3 R 3 7:45,3 +01:26,7 +00:00,5 1 2
50 60 EMANUEL Maxence/DALMASSO Pauline Ford Fiesta R2J R 2 7:45,6 +01:27,0 +00:00,3 4
51 74 TATIN Xavier/BAUMET Eddie Peugeot 306 S16 FA 7 7:45,7 +01:27,1 +00:00,1
52 26 DELOY David/OGIER Cédric Mitsubishi Lancer EvoX N 4 7:47,5 +01:28,9 +00:01,8
53 55 PONTAL Julien/BARRAL Florian Ford Fiesta R2J R 2 7:48,8 +01:30,2 +00:01,3 4
54 35 FRANCE Julien/MAZARGUIL Philippe Citroën DS3 R3 R 3 7:49,7 +01:31,1 +00:00,9
55 90 BERTHOD Loïc/JOSSERAND Alexis Citroën Saxo VTS FN 2 7:53,4 +01:34,8 +00:03,7
56 32 JOUINES Rémi/MAHEO Arnaud Peugeot 207 Rc R 3 7:55,4 +01:36,8 +00:02,0 1 2
57 84 FOURNIER Nicolas/VATTEAU Kévin Peugeot 206 XS F2 13 7:56,0 +01:37,4 +00:00,6 1 2
58 18 SALIN Daniel/SALIN Brigitte Subaru Impreza WRX R 4 7:56,1 +01:37,5 +00:00,1
59 56 VIAROUGE David/BENZAL Aurélien Ford Fiesta R2J R 2 7:56,2 +01:37,6 +00:00,1 4
60 11 FRAU Richard/GAREL Romain Ford Fiesta R5 R 5 7:59,9 +01:41,3 +00:03,7 1
61 94 VUITTENEZ Victorien/COTE COLISSON Maxime Peugeot 106 XSI FN 1 8:00,1 +01:41,5 +00:00,2
62 29 DAZY Jean-Pierre/LOIZEAUX Didier Renault Clio R3 R 3 8:03,0 +01:44,4 +00:02,9 1 2
63 69 QUARROZ Damien/VOLPI Cécile Citroën Saxo T4 FA 6K 8:03,3 +01:44,7 +00:00,3
64 17 CLARETY Jérôme/LACOSTE Vincent Mitsubishi Lancer EvoX R 4 8:05,7 +01:47,1 +00:02,4
65 73 SOUFFEZ Frédéric/PRUVOST Astrid Peugeot 206 Rc FA 7 8:06,0 +01:47,4 +00:00,3 1 2
66 27 PRIOLO Laurent/PRIOLO Cindy Mitsubishi Lancer Evo9 FN 4 8:06,1 +01:47,5 +00:00,1
67 82 DUCLAUX Julien/AMALBERTI Cédric Peugeot 206 Rc FN 3 8:07,4 +01:48,8 +00:01,3
68 87 MOUGIN Jules/ROUMETTE Clemence Peugeot 106 Rallye FA 5 8:15,2 +01:56,6 +00:07,8
69 58 VIANO Allison/CHOL Cecilia Ford Fiesta R2J R 2 8:19,7 +02:01,1 +00:04,5 4
70 80 REYNAUD Yvan/SCHWARTZ Eric Opel Manta GTE F2 14 8:21,1 +02:02,5 +00:01,4
71 70 BRENIAUX Sébastien/JACQUES Anthony Peugeot 206 XS FA 6K 8:24,7 +02:06,1 +00:03,6
72 65 FRANCESCHI Mathieu/BELHACENE Matthieu Citroën C2 R2 R 2 8:25,8 +02:07,2 +00:01,1
73 36 SPART Patrick/CATTIN Charline Peugeot 207 Rc R 3 8:27,3 +02:08,7 +00:01,5
74 72 FETY Fabrice/ROLLION Thomas Peugeot 206 XS FA 6K 8:28,5 +02:09,9 +00:01,2
75 50 CURIOZ Benjamin/BEERENS Pierre Ford Fiesta R2J R 2 8:29,2 +02:10,6 +00:00,7 4
76 81 VIDAL Marc/MONTARON Loïc Peugeot 309 GTI 16S F2 14 8:30,5 +02:11,9 +00:01,3
77 79 CLEMENT Frédéric/COSTES François Peugeot 206 Rc F2 14 8:36,3 +02:17,7 +00:05,8 1 2
78 89 DOLGOPYATOFF Damien/PERRIN Christelle Suzuki Swift Sport FN 2 8:36,9 +02:18,3 +00:00,6
79 77 STUDER Maude/STUDER Sébastien Peugeot 206 GT FA 7 8:43,5 +02:24,9 +00:06,6
80 95 FAUR Yoann/MASSON Kévin Peugeot 205 Rallye FN 1 8:52,5 +02:33,9 +00:09,0
81 92 FRANCOIS Léa/FRANCOIS Solene Peugeot 106 S16 FN 2 8:54,3 +02:35,7 +00:01,8
82 33 BOUCHET Guillaume/BLAMPEY Fabien Peugeot 207 Rc R 3 8:55,6 +02:37,0 +00:01,3
83 22 GLEY Jean-Pierre/JEUDY Nicolas B.M.W. 325 iX FA 8 9:17,9 +02:59,3 +00:22,3
84 86 MAUVAIS Michel/PY Jean-Michel Peugeot 205 Rallye FA 5 9:18,1 +02:59,5 +00:00,2
85 76 VERRY Vanessa/OUVRY Eleonore Peugeot 206 Rc FA 7 9:19,2 +03:00,6 +00:01,1
86 91 DI PAOLO Alain/MORILLON Frederika Peugeot 106 S16 FN 2 9:19,5 +03:00,9 +00:00,3
87 93 BRAQUET Jean-Baptiste/BRAQUET Elyse Peugeot 106 XSI FN 1 9:30,5 +03:11,9 +00:11,0
Clt Equipage Voiture Gr/Cl Temps Ecart 1er Ecart préc. Catégories
Commentaires: © PatricK Soft  
(Temps forfaitaires=couleur bleue)
Classés:87

Epreuve: Groupe: Catégorie:

 
Retour
Classement ES3-Perrogney-les-Fontaines - Vauxbons (8.000 km)